sensor_id;sensor_type;location;lat;lon;timestamp;pressure;altitude;pressure_sealevel;temperature;humidity
64025;BME280;50266;57.446;26.936;2023-07-08T00:00:24;99589.41;;;10.72;100.0
64025;BME280;50266;57.446;26.936;2023-07-08T00:01:23;99586.3;;;10.72;100.0
64025;BME280;50266;57.446;26.936;2023-07-08T00:02:23;99588.34;;;10.71;100.0
64025;BME280;50266;57.446;26.936;2023-07-08T00:03:23;99585.81;;;10.7;100.0
64025;BME280;50266;57.446;26.936;2023-07-08T00:04:23;99585.42;;;10.74;100.0
64025;BME280;50266;57.446;26.936;2023-07-08T00:05:23;99585.52;;;10.74;100.0
64025;BME280;50266;57.446;26.936;2023-07-08T00:06:25;99579.72;;;10.69;100.0
64025;BME280;50266;57.446;26.936;2023-07-08T00:07:23;99580.83;;;10.68;100.0
64025;BME280;50266;57.446;26.936;2023-07-08T00:08:23;99576.15;;;10.71;100.0
64025;BME280;50266;57.446;26.936;2023-07-08T00:09:24;99581.73;;;10.71;100.0
64025;BME280;50266;57.446;26.936;2023-07-08T00:10:24;99578.88;;;10.71;100.0
64025;BME280;50266;57.446;26.936;2023-07-08T00:11:24;99577.7;;;10.65;100.0
64025;BME280;50266;57.446;26.936;2023-07-08T00:12:29;99574.81;;;10.63;100.0
64025;BME280;50266;57.446;26.936;2023-07-08T00:13:25;99572.39;;;10.63;100.0
64025;BME280;50266;57.446;26.936;2023-07-08T00:14:25;99572.34;;;10.64;100.0
64025;BME280;50266;57.446;26.936;2023-07-08T00:15:26;99568.83;;;10.67;100.0
64025;BME280;50266;57.446;26.936;2023-07-08T00:16:25;99570.82;;;10.67;100.0
64025;BME280;50266;57.446;26.936;2023-07-08T00:17:25;99568.31;;;10.74;100.0
64025;BME280;50266;57.446;26.936;2023-07-08T00:18:25;99568.27;;;10.73;100.0
64025;BME280;50266;57.446;26.936;2023-07-08T00:19:25;99564.41;;;10.78;100.0
64025;BME280;50266;57.446;26.936;2023-07-08T00:20:38;99566.75;;;10.8;100.0
64025;BME280;50266;57.446;26.936;2023-07-08T00:21:26;99562.33;;;10.86;100.0
64025;BME280;50266;57.446;26.936;2023-07-08T00:22:26;99561.52;;;10.91;100.0
64025;BME280;50266;57.446;26.936;2023-07-08T00:23:26;99560.31;;;11.02;100.0
64025;BME280;50266;57.446;26.936;2023-07-08T00:24:26;99562.61;;;11.01;100.0
64025;BME280;50266;57.446;26.936;2023-07-08T00:25:26;99563.77;;;11.05;100.0
64025;BME280;50266;57.446;26.936;2023-07-08T00:26:26;99561.52;;;10.98;100.0
64025;BME280;50266;57.446;26.936;2023-07-08T00:27:26;99559.29;;;11.01;100.0
64025;BME280;50266;57.446;26.936;2023-07-08T00:28:26;99554.61;;;11.07;100.0
64025;BME280;50266;57.446;26.936;2023-07-08T00:29:26;99554.33;;;11.12;100.0
64025;BME280;50266;57.446;26.936;2023-07-08T00:30:27;99551.22;;;11.17;100.0
64025;BME280;50266;57.446;26.936;2023-07-08T00:31:26;99549.86;;;11.29;100.0
64025;BME280;50266;57.446;26.936;2023-07-08T00:32:26;99551.53;;;11.31;100.0
64025;BME280;50266;57.446;26.936;2023-07-08T00:33:26;99547.77;;;11.33;100.0
64025;BME280;50266;57.446;26.936;2023-07-08T00:34:26;99545.09;;;11.28;100.0
64025;BME280;50266;57.446;26.936;2023-07-08T00:35:31;99547.39;;;11.34;100.0
64025;BME280;50266;57.446;26.936;2023-07-08T00:36:29;99543.4;;;11.38;100.0
64025;BME280;50266;57.446;26.936;2023-07-08T00:37:29;99543.88;;;11.4;100.0
64025;BME280;50266;57.446;26.936;2023-07-08T00:38:29;99546.36;;;11.35;100.0
64025;BME280;50266;57.446;26.936;2023-07-08T00:39:29;99541.09;;;11.32;100.0
64025;BME280;50266;57.446;26.936;2023-07-08T00:40:30;99542.67;;;11.28;100.0
64025;BME280;50266;57.446;26.936;2023-07-08T00:41:35;99540.0;;;11.3;100.0
64025;BME280;50266;57.446;26.936;2023-07-08T00:42:33;99538.02;;;11.4;100.0
64025;BME280;50266;57.446;26.936;2023-07-08T00:43:37;99542.92;;;11.43;100.0
64025;BME280;50266;57.446;26.936;2023-07-08T00:44:34;99539.56;;;11.45;100.0
64025;BME280;50266;57.446;26.936;2023-07-08T00:47:42;99538.34;;;11.53;100.0
64025;BME280;50266;57.446;26.936;2023-07-08T00:48:42;99534.08;;;11.59;100.0
64025;BME280;50266;57.446;26.936;2023-07-08T00:49:43;99537.34;;;11.58;100.0
64025;BME280;50266;57.446;26.936;2023-07-08T00:50:42;99533.73;;;11.61;100.0
64025;BME280;50266;57.446;26.936;2023-07-08T00:51:42;99531.72;;;11.56;100.0
64025;BME280;50266;57.446;26.936;2023-07-08T00:52:42;99531.1;;;11.53;100.0
64025;BME280;50266;57.446;26.936;2023-07-08T00:53:42;99528.34;;;11.57;100.0
64025;BME280;50266;57.446;26.936;2023-07-08T00:54:42;99530.12;;;11.56;100.0
64025;BME280;50266;57.446;26.936;2023-07-08T00:55:42;99528.42;;;11.53;100.0
64025;BME280;50266;57.446;26.936;2023-07-08T00:56:43;99531.56;;;11.5;100.0
64025;BME280;50266;57.446;26.936;2023-07-08T00:57:42;99524.69;;;11.49;100.0
64025;BME280;50266;57.446;26.936;2023-07-08T00:58:44;99523.75;;;11.5;100.0
64025;BME280;50266;57.446;26.936;2023-07-08T00:59:44;99523.33;;;11.57;100.0
64025;BME280;50266;57.446;26.936;2023-07-08T01:00:42;99522.23;;;11.54;100.0
64025;BME280;50266;57.446;26.936;2023-07-08T01:01:42;99519.45;;;11.57;100.0
64025;BME280;50266;57.446;26.936;2023-07-08T01:02:44;99521.58;;;11.59;100.0
64025;BME280;50266;57.446;26.936;2023-07-08T01:03:44;99519.02;;;11.57;100.0
64025;BME280;50266;57.446;26.936;2023-07-08T01:04:47;99519.86;;;11.63;100.0
64025;BME280;50266;57.446;26.936;2023-07-08T01:05:45;99519.61;;;11.64;100.0
64025;BME280;50266;57.446;26.936;2023-07-08T01:06:46;99517.88;;;11.67;100.0
64025;BME280;50266;57.446;26.936;2023-07-08T01:07:46;99513.56;;;11.67;100.0
64025;BME280;50266;57.446;26.936;2023-07-08T01:08:45;99516.5;;;11.72;100.0
64025;BME280;50266;57.446;26.936;2023-07-08T01:09:45;99516.0;;;11.8;100.0
64025;BME280;50266;57.446;26.936;2023-07-08T01:10:46;99516.59;;;11.8;100.0
64025;BME280;50266;57.446;26.936;2023-07-08T01:11:45;99518.06;;;11.77;100.0
64025;BME280;50266;57.446;26.936;2023-07-08T01:12:49;99519.42;;;11.8;100.0
64025;BME280;50266;57.446;26.936;2023-07-08T01:13:48;99516.3;;;11.88;100.0
64025;BME280;50266;57.446;26.936;2023-07-08T01:14:48;99520.42;;;11.87;100.0
64025;BME280;50266;57.446;26.936;2023-07-08T01:15:48;99516.75;;;11.91;100.0
64025;BME280;50266;57.446;26.936;2023-07-08T01:16:48;99512.51;;;11.87;100.0
64025;BME280;50266;57.446;26.936;2023-07-08T01:17:48;99508.84;;;11.87;100.0
64025;BME280;50266;57.446;26.936;2023-07-08T01:18:48;99508.42;;;11.89;100.0
64025;BME280;50266;57.446;26.936;2023-07-08T01:19:48;99511.28;;;11.84;100.0
64025;BME280;50266;57.446;26.936;2023-07-08T01:20:48;99508.7;;;11.9;100.0
64025;BME280;50266;57.446;26.936;2023-07-08T01:22:50;99503.45;;;11.92;100.0
64025;BME280;50266;57.446;26.936;2023-07-08T01:23:50;99503.6;;;11.91;100.0
64025;BME280;50266;57.446;26.936;2023-07-08T01:24:50;99501.3;;;12.01;100.0
64025;BME280;50266;57.446;26.936;2023-07-08T01:25:50;99506.55;;;12.01;100.0
64025;BME280;50266;57.446;26.936;2023-07-08T01:26:50;99504.16;;;12.01;100.0
64025;BME280;50266;57.446;26.936;2023-07-08T01:27:52;99504.83;;;12.07;100.0
64025;BME280;50266;57.446;26.936;2023-07-08T01:28:50;99505.05;;;12.06;100.0
64025;BME280;50266;57.446;26.936;2023-07-08T01:29:50;99504.12;;;12.03;100.0
64025;BME280;50266;57.446;26.936;2023-07-08T01:30:50;99502.91;;;12.02;100.0
64025;BME280;50266;57.446;26.936;2023-07-08T01:31:50;99500.04;;;12.06;100.0
64025;BME280;50266;57.446;26.936;2023-07-08T01:32:51;99501.22;;;12.06;100.0
64025;BME280;50266;57.446;26.936;2023-07-08T01:33:51;99500.61;;;12.05;100.0
64025;BME280;50266;57.446;26.936;2023-07-08T01:34:50;99502.19;;;12.08;100.0
64025;BME280;50266;57.446;26.936;2023-07-08T01:35:51;99505.16;;;12.09;100.0
64025;BME280;50266;57.446;26.936;2023-07-08T01:36:51;99506.55;;;12.06;100.0
64025;BME280;50266;57.446;26.936;2023-07-08T01:37:54;99502.89;;;12.06;100.0
64025;BME280;50266;57.446;26.936;2023-07-08T01:38:52;99499.13;;;12.11;100.0
64025;BME280;50266;57.446;26.936;2023-07-08T01:39:52;99502.56;;;12.15;100.0
64025;BME280;50266;57.446;26.936;2023-07-08T01:40:53;99498.28;;;12.12;100.0
64025;BME280;50266;57.446;26.936;2023-07-08T01:41:53;99503.45;;;12.1;100.0
64025;BME280;50266;57.446;26.936;2023-07-08T01:42:52;99504.66;;;12.09;100.0
64025;BME280;50266;57.446;26.936;2023-07-08T01:43:52;99500.8;;;12.06;100.0
64025;BME280;50266;57.446;26.936;2023-07-08T01:44:52;99501.64;;;12.07;100.0
64025;BME280;50266;57.446;26.936;2023-07-08T01:45:52;99499.17;;;12.09;100.0
64025;BME280;50266;57.446;26.936;2023-07-08T01:46:52;99500.12;;;12.17;100.0
64025;BME280;50266;57.446;26.936;2023-07-08T01:48:08;99500.12;;;12.12;100.0
64025;BME280;50266;57.446;26.936;2023-07-08T01:48:56;99498.03;;;12.12;100.0
64025;BME280;50266;57.446;26.936;2023-07-08T01:49:56;99501.22;;;12.19;100.0
64025;BME280;50266;57.446;26.936;2023-07-08T01:50:56;99503.14;;;12.2;100.0
64025;BME280;50266;57.446;26.936;2023-07-08T01:51:56;99499.03;;;12.21;100.0
64025;BME280;50266;57.446;26.936;2023-07-08T01:52:56;99500.22;;;12.22;100.0
64025;BME280;50266;57.446;26.936;2023-07-08T01:53:56;99499.41;;;12.25;100.0
64025;BME280;50266;57.446;26.936;2023-07-08T01:54:56;99498.91;;;12.28;100.0
64025;BME280;50266;57.446;26.936;2023-07-08T01:55:56;99499.7;;;12.29;100.0
64025;BME280;50266;57.446;26.936;2023-07-08T01:56:56;99498.52;;;12.29;100.0
64025;BME280;50266;57.446;26.936;2023-07-08T01:57:56;99497.8;;;12.32;100.0
64025;BME280;50266;57.446;26.936;2023-07-08T01:58:56;99503.33;;;12.33;100.0
64025;BME280;50266;57.446;26.936;2023-07-08T01:59:56;99502.11;;;12.31;100.0
64025;BME280;50266;57.446;26.936;2023-07-08T02:00:56;99497.81;;;12.32;100.0
64025;BME280;50266;57.446;26.936;2023-07-08T02:01:56;99502.45;;;12.33;100.0
64025;BME280;50266;57.446;26.936;2023-07-08T02:02:56;99501.03;;;12.34;100.0
64025;BME280;50266;57.446;26.936;2023-07-08T02:03:56;99497.19;;;12.4;100.0
64025;BME280;50266;57.446;26.936;2023-07-08T02:04:56;99496.17;;;12.44;100.0
64025;BME280;50266;57.446;26.936;2023-07-08T02:05:56;99492.93;;;12.37;100.0
64025;BME280;50266;57.446;26.936;2023-07-08T02:06:57;99491.34;;;12.35;100.0
64025;BME280;50266;57.446;26.936;2023-07-08T02:07:56;99496.26;;;12.4;100.0
64025;BME280;50266;57.446;26.936;2023-07-08T02:08:56;99497.72;;;12.36;100.0
64025;BME280;50266;57.446;26.936;2023-07-08T02:09:56;99490.16;;;12.32;100.0
64025;BME280;50266;57.446;26.936;2023-07-08T02:10:57;99492.58;;;12.39;100.0
64025;BME280;50266;57.446;26.936;2023-07-08T02:11:57;99486.69;;;12.4;100.0
64025;BME280;50266;57.446;26.936;2023-07-08T02:12:56;99485.34;;;12.39;100.0
64025;BME280;50266;57.446;26.936;2023-07-08T02:13:56;99486.64;;;12.36;100.0
64025;BME280;50266;57.446;26.936;2023-07-08T02:15:00;99488.01;;;12.35;100.0
64025;BME280;50266;57.446;26.936;2023-07-08T02:15:57;99490.05;;;12.38;100.0
64025;BME280;50266;57.446;26.936;2023-07-08T02:16:57;99491.23;;;12.34;100.0
64025;BME280;50266;57.446;26.936;2023-07-08T02:17:57;99495.09;;;12.33;100.0
64025;BME280;50266;57.446;26.936;2023-07-08T02:18:57;99496.69;;;12.31;100.0
64025;BME280;50266;57.446;26.936;2023-07-08T02:19:57;99495.04;;;12.27;100.0
64025;BME280;50266;57.446;26.936;2023-07-08T02:20:57;99500.53;;;12.29;100.0
64025;BME280;50266;57.446;26.936;2023-07-08T02:21:57;99501.7;;;12.21;100.0
64025;BME280;50266;57.446;26.936;2023-07-08T02:22:57;99497.73;;;12.22;100.0
64025;BME280;50266;57.446;26.936;2023-07-08T02:23:57;99493.48;;;12.13;100.0
64025;BME280;50266;57.446;26.936;2023-07-08T02:24:57;99496.14;;;12.15;100.0
64025;BME280;50266;57.446;26.936;2023-07-08T02:25:57;99494.45;;;12.15;100.0
64025;BME280;50266;57.446;26.936;2023-07-08T02:26:57;99490.94;;;12.1;100.0
64025;BME280;50266;57.446;26.936;2023-07-08T02:27:57;99489.89;;;12.1;100.0
64025;BME280;50266;57.446;26.936;2023-07-08T02:28:58;99488.87;;;12.1;100.0
64025;BME280;50266;57.446;26.936;2023-07-08T02:29:57;99489.03;;;12.1;100.0
64025;BME280;50266;57.446;26.936;2023-07-08T02:31:01;99495.2;;;12.12;100.0
64025;BME280;50266;57.446;26.936;2023-07-08T02:31:58;99490.69;;;12.04;100.0
64025;BME280;50266;57.446;26.936;2023-07-08T02:32:58;99491.75;;;12.11;100.0
64025;BME280;50266;57.446;26.936;2023-07-08T02:33:58;99490.05;;;12.1;100.0
64025;BME280;50266;57.446;26.936;2023-07-08T02:34:58;99489.5;;;12.11;100.0
64025;BME280;50266;57.446;26.936;2023-07-08T02:35:58;99488.11;;;12.14;100.0
64025;BME280;50266;57.446;26.936;2023-07-08T02:36:58;99490.96;;;12.21;100.0
64025;BME280;50266;57.446;26.936;2023-07-08T02:37:58;99490.98;;;12.24;100.0
64025;BME280;50266;57.446;26.936;2023-07-08T02:38:58;99493.19;;;12.29;100.0
64025;BME280;50266;57.446;26.936;2023-07-08T02:39:58;99494.36;;;12.26;100.0
64025;BME280;50266;57.446;26.936;2023-07-08T02:40:59;99494.61;;;12.27;100.0
64025;BME280;50266;57.446;26.936;2023-07-08T02:41:58;99494.89;;;12.32;100.0
64025;BME280;50266;57.446;26.936;2023-07-08T02:42:58;99494.84;;;12.34;100.0
64025;BME280;50266;57.446;26.936;2023-07-08T02:43:58;99495.41;;;12.37;100.0
64025;BME280;50266;57.446;26.936;2023-07-08T02:44:58;99493.27;;;12.35;100.0
64025;BME280;50266;57.446;26.936;2023-07-08T02:45:58;99495.7;;;12.36;100.0
64025;BME280;50266;57.446;26.936;2023-07-08T02:46:58;99494.85;;;12.38;100.0
64025;BME280;50266;57.446;26.936;2023-07-08T02:47:58;99494.54;;;12.34;100.0
64025;BME280;50266;57.446;26.936;2023-07-08T02:48:58;99496.89;;;12.36;100.0
64025;BME280;50266;57.446;26.936;2023-07-08T02:49:58;99493.43;;;12.4;100.0
64025;BME280;50266;57.446;26.936;2023-07-08T02:50:59;99493.19;;;12.38;100.0
64025;BME280;50266;57.446;26.936;2023-07-08T02:51:58;99498.24;;;12.35;100.0
64025;BME280;50266;57.446;26.936;2023-07-08T02:52:58;99497.39;;;12.32;100.0
64025;BME280;50266;57.446;26.936;2023-07-08T02:53:58;99497.0;;;12.37;100.0
64025;BME280;50266;57.446;26.936;2023-07-08T02:54:58;99495.12;;;12.36;100.0
64025;BME280;50266;57.446;26.936;2023-07-08T02:55:58;99494.13;;;12.41;100.0
64025;BME280;50266;57.446;26.936;2023-07-08T02:56:58;99493.56;;;12.36;100.0
64025;BME280;50266;57.446;26.936;2023-07-08T02:57:58;99492.02;;;12.4;100.0
64025;BME280;50266;57.446;26.936;2023-07-08T02:58:58;99494.69;;;12.4;100.0
64025;BME280;50266;57.446;26.936;2023-07-08T02:59:58;99492.45;;;12.4;100.0
64025;BME280;50266;57.446;26.936;2023-07-08T03:00:58;99490.2;;;12.41;100.0
64025;BME280;50266;57.446;26.936;2023-07-08T03:01:58;99490.85;;;12.42;100.0
64025;BME280;50266;57.446;26.936;2023-07-08T03:02:58;99488.8;;;12.45;100.0
64025;BME280;50266;57.446;26.936;2023-07-08T03:03:58;99494.59;;;12.42;100.0
64025;BME280;50266;57.446;26.936;2023-07-08T03:04:58;99487.67;;;12.47;100.0
64025;BME280;50266;57.446;26.936;2023-07-08T03:05:59;99489.27;;;12.47;100.0
64025;BME280;50266;57.446;26.936;2023-07-08T03:06:58;99488.19;;;12.5;100.0
64025;BME280;50266;57.446;26.936;2023-07-08T03:07:58;99483.88;;;12.51;100.0
64025;BME280;50266;57.446;26.936;2023-07-08T03:08:58;99487.39;;;12.49;100.0
64025;BME280;50266;57.446;26.936;2023-07-08T03:09:58;99485.03;;;12.53;100.0
64025;BME280;50266;57.446;26.936;2023-07-08T03:11:00;99485.81;;;12.58;100.0
64025;BME280;50266;57.446;26.936;2023-07-08T03:11:59;99481.59;;;12.57;100.0
64025;BME280;50266;57.446;26.936;2023-07-08T03:12:59;99480.2;;;12.58;100.0
64025;BME280;50266;57.446;26.936;2023-07-08T03:13:59;99483.7;;;12.6;100.0
64025;BME280;50266;57.446;26.936;2023-07-08T03:14:59;99481.66;;;12.61;100.0
64025;BME280;50266;57.446;26.936;2023-07-08T03:16:00;99481.71;;;12.63;100.0
64025;BME280;50266;57.446;26.936;2023-07-08T03:16:59;99478.34;;;12.59;100.0
64025;BME280;50266;57.446;26.936;2023-07-08T03:17:59;99479.34;;;12.62;100.0
64025;BME280;50266;57.446;26.936;2023-07-08T03:18:59;99477.82;;;12.63;100.0
64025;BME280;50266;57.446;26.936;2023-07-08T03:19:59;99476.8;;;12.68;100.0
64025;BME280;50266;57.446;26.936;2023-07-08T03:20:59;99478.17;;;12.66;100.0
64025;BME280;50266;57.446;26.936;2023-07-08T03:21:59;99474.61;;;12.7;100.0
64025;BME280;50266;57.446;26.936;2023-07-08T03:22:59;99474.42;;;12.74;100.0
64025;BME280;50266;57.446;26.936;2023-07-08T03:23:59;99474.16;;;12.74;100.0
64025;BME280;50266;57.446;26.936;2023-07-08T03:24:59;99474.55;;;12.78;100.0
64025;BME280;50266;57.446;26.936;2023-07-08T03:25:59;99476.72;;;12.89;100.0
64025;BME280;50266;57.446;26.936;2023-07-08T03:26:59;99474.38;;;12.96;100.0
64025;BME280;50266;57.446;26.936;2023-07-08T03:27:59;99473.11;;;13.01;100.0
64025;BME280;50266;57.446;26.936;2023-07-08T03:28:59;99469.99;;;13.07;100.0
64025;BME280;50266;57.446;26.936;2023-07-08T03:29:59;99468.42;;;13.07;100.0
64025;BME280;50266;57.446;26.936;2023-07-08T03:30:59;99465.76;;;13.11;100.0
64025;BME280;50266;57.446;26.936;2023-07-08T03:31:59;99464.84;;;13.18;100.0
64025;BME280;50266;57.446;26.936;2023-07-08T03:33:00;99464.27;;;13.21;100.0
64025;BME280;50266;57.446;26.936;2023-07-08T03:33:59;99466.83;;;13.25;100.0
64025;BME280;50266;57.446;26.936;2023-07-08T03:34:59;99461.97;;;13.3;100.0
64025;BME280;50266;57.446;26.936;2023-07-08T03:36:00;99465.49;;;13.39;100.0
64025;BME280;50266;57.446;26.936;2023-07-08T03:36:59;99469.92;;;13.42;100.0
64025;BME280;50266;57.446;26.936;2023-07-08T03:37:59;99469.93;;;13.45;100.0
64025;BME280;50266;57.446;26.936;2023-07-08T03:38:59;99468.7;;;13.46;100.0
64025;BME280;50266;57.446;26.936;2023-07-08T03:39:59;99470.5;;;13.54;100.0
64025;BME280;50266;57.446;26.936;2023-07-08T03:40:59;99469.2;;;13.57;100.0
64025;BME280;50266;57.446;26.936;2023-07-08T03:42:00;99471.71;;;13.69;100.0
64025;BME280;50266;57.446;26.936;2023-07-08T03:43:00;99468.41;;;13.73;100.0
64025;BME280;50266;57.446;26.936;2023-07-08T03:44:00;99469.48;;;13.73;100.0
64025;BME280;50266;57.446;26.936;2023-07-08T03:45:00;99467.97;;;13.84;100.0
64025;BME280;50266;57.446;26.936;2023-07-08T03:46:00;99467.63;;;13.84;100.0
64025;BME280;50266;57.446;26.936;2023-07-08T03:47:00;99469.44;;;13.95;100.0
64025;BME280;50266;57.446;26.936;2023-07-08T03:48:00;99470.88;;;13.99;100.0
64025;BME280;50266;57.446;26.936;2023-07-08T03:49:00;99471.41;;;14.08;100.0
64025;BME280;50266;57.446;26.936;2023-07-08T03:50:00;99471.87;;;14.1;100.0
64025;BME280;50266;57.446;26.936;2023-07-08T03:51:00;99474.47;;;14.1;100.0
64025;BME280;50266;57.446;26.936;2023-07-08T03:52:00;99481.22;;;14.14;100.0
64025;BME280;50266;57.446;26.936;2023-07-08T03:53:00;99480.23;;;14.2;100.0
64025;BME280;50266;57.446;26.936;2023-07-08T03:54:00;99487.45;;;14.16;100.0
64025;BME280;50266;57.446;26.936;2023-07-08T03:55:00;99489.62;;;14.08;100.0
64025;BME280;50266;57.446;26.936;2023-07-08T03:56:00;99486.23;;;14.13;100.0
64025;BME280;50266;57.446;26.936;2023-07-08T03:57:00;99491.27;;;14.17;100.0
64025;BME280;50266;57.446;26.936;2023-07-08T03:58:00;99493.73;;;14.16;100.0
64025;BME280;50266;57.446;26.936;2023-07-08T03:59:00;99494.22;;;14.3;100.0
64025;BME280;50266;57.446;26.936;2023-07-08T04:00:00;99493.12;;;14.27;100.0
64025;BME280;50266;57.446;26.936;2023-07-08T04:01:00;99497.23;;;14.33;100.0
64025;BME280;50266;57.446;26.936;2023-07-08T04:02:00;99497.38;;;14.33;100.0
64025;BME280;50266;57.446;26.936;2023-07-08T04:03:00;99497.23;;;14.34;100.0
64025;BME280;50266;57.446;26.936;2023-07-08T04:04:00;99501.58;;;14.33;100.0
64025;BME280;50266;57.446;26.936;2023-07-08T04:05:00;99498.36;;;14.32;100.0
64025;BME280;50266;57.446;26.936;2023-07-08T04:06:00;99497.66;;;14.37;100.0
64025;BME280;50266;57.446;26.936;2023-07-08T04:07:00;99493.23;;;14.35;100.0
64025;BME280;50266;57.446;26.936;2023-07-08T04:08:00;99501.96;;;14.32;100.0
64025;BME280;50266;57.446;26.936;2023-07-08T04:09:00;99503.17;;;14.33;100.0
64025;BME280;50266;57.446;26.936;2023-07-08T04:10:00;99505.09;;;14.25;100.0
64025;BME280;50266;57.446;26.936;2023-07-08T04:11:00;99500.41;;;14.24;100.0
64025;BME280;50266;57.446;26.936;2023-07-08T04:12:00;99501.09;;;14.19;100.0
64025;BME280;50266;57.446;26.936;2023-07-08T04:13:00;99500.25;;;14.22;100.0
64025;BME280;50266;57.446;26.936;2023-07-08T04:14:00;99501.54;;;14.26;100.0
64025;BME280;50266;57.446;26.936;2023-07-08T04:15:00;99499.56;;;14.3;100.0
64025;BME280;50266;57.446;26.936;2023-07-08T04:16:02;99496.75;;;14.28;100.0
64025;BME280;50266;57.446;26.936;2023-07-08T04:17:00;99498.95;;;14.32;100.0
64025;BME280;50266;57.446;26.936;2023-07-08T04:18:00;99498.81;;;14.24;100.0
64025;BME280;50266;57.446;26.936;2023-07-08T04:19:00;99497.17;;;14.34;100.0
64025;BME280;50266;57.446;26.936;2023-07-08T04:20:00;99493.72;;;14.37;100.0
64025;BME280;50266;57.446;26.936;2023-07-08T04:21:00;99494.39;;;14.37;100.0
64025;BME280;50266;57.446;26.936;2023-07-08T04:22:00;99496.25;;;14.38;100.0
64025;BME280;50266;57.446;26.936;2023-07-08T04:23:00;99495.43;;;14.38;100.0
64025;BME280;50266;57.446;26.936;2023-07-08T04:24:00;99492.39;;;14.42;100.0
64025;BME280;50266;57.446;26.936;2023-07-08T04:25:00;99498.23;;;14.21;100.0
64025;BME280;50266;57.446;26.936;2023-07-08T04:26:00;99495.36;;;14.36;100.0
64025;BME280;50266;57.446;26.936;2023-07-08T04:27:00;99493.72;;;14.4;100.0
64025;BME280;50266;57.446;26.936;2023-07-08T04:28:00;99498.29;;;14.47;100.0
64025;BME280;50266;57.446;26.936;2023-07-08T04:29:01;99499.37;;;14.47;100.0
64025;BME280;50266;57.446;26.936;2023-07-08T04:30:00;99498.69;;;14.43;100.0
64025;BME280;50266;57.446;26.936;2023-07-08T04:31:00;99495.14;;;14.48;100.0
64025;BME280;50266;57.446;26.936;2023-07-08T04:32:00;99501.07;;;14.54;100.0
64025;BME280;50266;57.446;26.936;2023-07-08T04:33:00;99500.91;;;14.51;100.0
64025;BME280;50266;57.446;26.936;2023-07-08T04:34:00;99501.72;;;14.41;100.0
64025;BME280;50266;57.446;26.936;2023-07-08T04:35:00;99500.05;;;14.41;100.0
64025;BME280;50266;57.446;26.936;2023-07-08T04:36:00;99500.2;;;14.47;100.0
64025;BME280;50266;57.446;26.936;2023-07-08T04:37:00;99499.31;;;14.44;100.0
64025;BME280;50266;57.446;26.936;2023-07-08T04:38:00;99496.19;;;14.4;100.0
64025;BME280;50266;57.446;26.936;2023-07-08T04:39:04;99495.51;;;14.52;100.0
64025;BME280;50266;57.446;26.936;2023-07-08T04:40:00;99494.83;;;14.49;100.0
64025;BME280;50266;57.446;26.936;2023-07-08T04:41:00;99496.56;;;14.48;100.0
64025;BME280;50266;57.446;26.936;2023-07-08T04:42:00;99497.42;;;14.52;100.0
64025;BME280;50266;57.446;26.936;2023-07-08T04:43:01;99497.54;;;14.5;100.0
64025;BME280;50266;57.446;26.936;2023-07-08T04:44:00;99496.19;;;14.57;100.0
64025;BME280;50266;57.446;26.936;2023-07-08T04:45:01;99495.69;;;14.53;100.0
64025;BME280;50266;57.446;26.936;2023-07-08T04:46:01;99500.3;;;14.44;100.0
64025;BME280;50266;57.446;26.936;2023-07-08T04:47:01;99499.41;;;14.37;100.0
64025;BME280;50266;57.446;26.936;2023-07-08T04:48:01;99503.41;;;14.4;100.0
64025;BME280;50266;57.446;26.936;2023-07-08T04:49:01;99502.12;;;14.36;100.0
64025;BME280;50266;57.446;26.936;2023-07-08T04:50:01;99503.58;;;14.45;100.0
64025;BME280;50266;57.446;26.936;2023-07-08T04:51:01;99504.78;;;14.52;100.0
64025;BME280;50266;57.446;26.936;2023-07-08T04:52:01;99505.19;;;14.52;100.0
64025;BME280;50266;57.446;26.936;2023-07-08T04:53:01;99498.8;;;14.57;100.0
64025;BME280;50266;57.446;26.936;2023-07-08T04:54:01;99497.38;;;14.61;100.0
64025;BME280;50266;57.446;26.936;2023-07-08T04:55:01;99494.89;;;14.61;100.0
64025;BME280;50266;57.446;26.936;2023-07-08T04:56:01;99496.83;;;14.59;100.0
64025;BME280;50266;57.446;26.936;2023-07-08T04:57:01;99497.12;;;14.63;100.0
64025;BME280;50266;57.446;26.936;2023-07-08T04:58:01;99498.89;;;14.61;100.0
64025;BME280;50266;57.446;26.936;2023-07-08T04:59:01;99495.91;;;14.62;100.0
64025;BME280;50266;57.446;26.936;2023-07-08T05:00:01;99495.7;;;14.69;100.0
64025;BME280;50266;57.446;26.936;2023-07-08T05:01:01;99493.7;;;14.7;100.0
64025;BME280;50266;57.446;26.936;2023-07-08T05:02:01;99494.61;;;14.73;100.0
64025;BME280;50266;57.446;26.936;2023-07-08T05:03:01;99493.05;;;14.88;100.0
64025;BME280;50266;57.446;26.936;2023-07-08T05:04:01;99492.73;;;14.91;100.0
64025;BME280;50266;57.446;26.936;2023-07-08T05:05:01;99489.44;;;14.8;100.0
64025;BME280;50266;57.446;26.936;2023-07-08T05:06:01;99488.54;;;14.84;100.0
64025;BME280;50266;57.446;26.936;2023-07-08T05:07:01;99493.79;;;14.87;100.0
64025;BME280;50266;57.446;26.936;2023-07-08T05:08:01;99492.23;;;14.82;100.0
64025;BME280;50266;57.446;26.936;2023-07-08T05:09:01;99491.6;;;14.9;100.0
64025;BME280;50266;57.446;26.936;2023-07-08T05:10:01;99491.88;;;15.01;100.0
64025;BME280;50266;57.446;26.936;2023-07-08T05:11:01;99496.97;;;15.11;100.0
64025;BME280;50266;57.446;26.936;2023-07-08T05:12:01;99495.46;;;15.14;100.0
64025;BME280;50266;57.446;26.936;2023-07-08T05:13:01;99492.94;;;15.22;100.0
64025;BME280;50266;57.446;26.936;2023-07-08T05:14:02;99495.06;;;15.26;100.0
64025;BME280;50266;57.446;26.936;2023-07-08T05:15:01;99499.86;;;15.28;100.0
64025;BME280;50266;57.446;26.936;2023-07-08T05:16:01;99502.5;;;15.15;100.0
64025;BME280;50266;57.446;26.936;2023-07-08T05:17:01;99496.28;;;15.32;100.0
64025;BME280;50266;57.446;26.936;2023-07-08T05:18:01;99493.31;;;15.42;100.0